Time;durP1;ratioP1;P1;durP2;ratioP2;P2;SDS_P1;SDS_P2;PMS_P1;PMS_P2;Temp;Humidity;BMP_temperature;BMP_pressure;BME280_temperature;BME280_humidity;BME280_pressure;Samples;Min_cycle;Max_cycle;Signal;HPM_P1;HPM_P2
2023/09/16 00:01:45;;;;;;;4.23;2.70;;;;;;;;;;5029776;28;20489;-58
2023/09/16 00:04:12;;;;;;;2.70;2.00;;;;;;;;;;5030353;28;20858;-56
2023/09/16 00:06:40;;;;;;;3.33;2.33;;;;;;;;;;5029415;28;20477;-55
2023/09/16 00:09:08;;;;;;;6.07;2.23;;;;;;;;;;5029710;28;20478;-59
2023/09/16 00:11:36;;;;;;;2.63;1.80;;;;;;;;;;5029487;28;20544;-59
2023/09/16 00:14:04;;;;;;;4.07;2.23;;;;;;;;;;5029676;28;20510;-56
2023/09/16 00:16:31;;;;;;;3.17;1.80;;;;;;;;;;5030740;28;20944;-56
2023/09/16 00:18:58;;;;;;;2.40;1.70;;;;;;;;;;5033496;28;20508;-57
2023/09/16 00:21:25;;;;;;;3.50;1.90;;;;;;;;;;5033345;28;20500;-59
2023/09/16 00:23:53;;;;;;;4.27;2.00;;;;;;;;;;5033635;28;20505;-57
2023/09/16 00:26:22;;;;;;;3.83;2.03;;;;;;;;;;5033941;28;20533;-56
2023/09/16 00:28:49;;;;;;;3.03;1.90;;;;;;;;;;5033281;28;20489;-57
2023/09/16 00:31:17;;;;;;;3.37;2.40;;;;;;;;;;5033875;28;20478;-57
2023/09/16 00:33:44;;;;;;;2.67;1.97;;;;;;;;;;5033008;28;20504;-58
2023/09/16 00:36:12;;;;;;;3.47;2.10;;;;;;;;;;5033368;28;20512;-57
2023/09/16 00:38:39;;;;;;;3.40;1.80;;;;;;;;;;5033285;28;20482;-56
2023/09/16 00:41:06;;;;;;;2.40;1.80;;;;;;;;;;5033819;28;20519;-57
2023/09/16 00:43:35;;;;;;;2.90;2.30;;;;;;;;;;5033199;28;20509;-56
2023/09/16 00:46:02;;;;;;;2.90;2.00;;;;;;;;;;5033081;28;20839;-57
2023/09/16 00:48:30;;;;;;;4.67;2.10;;;;;;;;;;5033038;28;20468;-56
2023/09/16 00:50:57;;;;;;;3.43;1.87;;;;;;;;;;5033166;28;20474;-57
2023/09/16 00:53:24;;;;;;;5.50;2.30;;;;;;;;;;5032915;28;20523;-57
2023/09/16 00:55:53;;;;;;;4.10;2.53;;;;;;;;;;5033054;28;20453;-57
2023/09/16 00:58:20;;;;;;;2.83;2.07;;;;;;;;;;5032651;28;20450;-56
2023/09/16 01:00:49;;;;;;;7.70;2.50;;;;;;;;;;5032695;28;20478;-58
2023/09/16 01:03:17;;;;;;;4.60;2.40;;;;;;;;;;5032780;28;20466;-56
2023/09/16 01:05:45;;;;;;;4.10;2.00;;;;;;;;;;5032739;28;20527;-58
2023/09/16 01:08:12;;;;;;;2.83;2.00;;;;;;;;;;5032690;28;20825;-57
2023/09/16 01:10:41;;;;;;;2.63;1.80;;;;;;;;;;5033053;28;20459;-57
2023/09/16 01:13:08;;;;;;;3.30;1.93;;;;;;;;;;5032617;28;20494;-56
2023/09/16 01:15:38;;;;;;;3.13;2.00;;;;;;;;;;5033215;28;20452;-59
2023/09/16 01:18:08;;;;;;;2.70;1.60;;;;;;;;;;5032333;28;21014;-57
2023/09/16 01:20:38;;;;;;;2.63;1.67;;;;;;;;;;5032542;28;20695;-57
2023/09/16 01:23:06;;;;;;;3.20;1.90;;;;;;;;;;5032466;28;20470;-56
2023/09/16 01:25:34;;;;;;;2.77;1.80;;;;;;;;;;5032740;28;20457;-56
2023/09/16 01:28:03;;;;;;;3.30;1.90;;;;;;;;;;5031372;28;20490;-56
2023/09/16 01:30:35;;;;;;;2.33;1.63;;;;;;;;;;5032374;28;20446;-57
2023/09/16 01:33:08;;;;;;;3.53;2.20;;;;;;;;;;5031356;28;20509;-56
2023/09/16 01:35:37;;;;;;;3.27;1.90;;;;;;;;;;5032436;28;20497;-58
2023/09/16 01:38:06;;;;;;;3.47;1.90;;;;;;;;;;5032326;28;20449;-57
2023/09/16 01:40:36;;;;;;;2.50;1.90;;;;;;;;;;5032543;28;20438;-57
2023/09/16 01:43:03;;;;;;;3.30;2.40;;;;;;;;;;5032046;28;20580;-58
2023/09/16 01:45:40;;;;;;;2.63;1.70;;;;;;;;;;5032191;28;20529;-55
2023/09/16 01:48:07;;;;;;;2.83;2.07;;;;;;;;;;5031863;28;20478;-56
2023/09/16 01:50:35;;;;;;;2.70;1.90;;;;;;;;;;5032179;28;20886;-56
2023/09/16 01:53:02;;;;;;;4.53;2.13;;;;;;;;;;5032188;28;20496;-56
2023/09/16 01:55:30;;;;;;;3.97;2.07;;;;;;;;;;5031939;28;20456;-57
2023/09/16 01:57:59;;;;;;;2.87;1.80;;;;;;;;;;5031611;28;20450;-58
2023/09/16 02:00:26;;;;;;;2.97;2.40;;;;;;;;;;5031683;28;20477;-58
2023/09/16 02:02:54;;;;;;;2.77;1.63;;;;;;;;;;5031650;28;20560;-56
2023/09/16 02:05:21;;;;;;;4.40;2.77;;;;;;;;;;5031781;28;20817;-56
2023/09/16 02:07:48;;;;;;;3.50;2.23;;;;;;;;;;5031285;28;20850;-57
2023/09/16 02:10:15;;;;;;;4.70;2.07;;;;;;;;;;5031536;28;20944;-56
2023/09/16 02:12:43;;;;;;;3.40;2.33;;;;;;;;;;5031544;28;20492;-56
2023/09/16 02:15:12;;;;;;;3.17;1.80;;;;;;;;;;5031687;28;20447;-57
2023/09/16 02:17:40;;;;;;;4.13;2.40;;;;;;;;;;5031629;28;20442;-57
2023/09/16 02:20:09;;;;;;;3.30;2.13;;;;;;;;;;5031593;28;20454;-55
2023/09/16 02:22:37;;;;;;;2.83;2.20;;;;;;;;;;5031195;28;20462;-56
2023/09/16 02:25:04;;;;;;;3.30;2.30;;;;;;;;;;5031500;28;20504;-56
2023/09/16 02:27:32;;;;;;;3.33;1.70;;;;;;;;;;5031013;28;20442;-56
2023/09/16 02:29:59;;;;;;;3.60;2.00;;;;;;;;;;5031458;28;20525;-57
2023/09/16 02:32:29;;;;;;;3.27;2.07;;;;;;;;;;5031321;28;20520;-56
2023/09/16 02:34:56;;;;;;;5.83;2.07;;;;;;;;;;5030852;28;20455;-57
2023/09/16 02:37:23;;;;;;;2.90;2.03;;;;;;;;;;5031034;28;20450;-57
2023/09/16 02:39:50;;;;;;;3.63;1.90;;;;;;;;;;5030171;28;20486;-57
2023/09/16 02:42:17;;;;;;;3.70;2.17;;;;;;;;;;5031027;28;20555;-57
2023/09/16 02:44:45;;;;;;;3.30;2.00;;;;;;;;;;5031158;28;20875;-57
2023/09/16 02:47:12;;;;;;;4.67;2.50;;;;;;;;;;5030701;28;20466;-56
2023/09/16 02:49:41;;;;;;;5.03;1.97;;;;;;;;;;5030870;28;20476;-56
2023/09/16 02:52:08;;;;;;;2.37;1.67;;;;;;;;;;5030640;28;20563;-57
2023/09/16 02:54:35;;;;;;;3.43;1.33;;;;;;;;;;5031134;28;20474;-57
2023/09/16 02:57:02;;;;;;;3.00;2.03;;;;;;;;;;5030549;28;20438;-56
2023/09/16 02:59:30;;;;;;;4.07;1.77;;;;;;;;;;5031107;28;20520;-56
2023/09/16 03:01:57;;;;;;;2.57;1.73;;;;;;;;;;5030415;28;20442;-58
2023/09/16 03:04:24;;;;;;;5.20;2.57;;;;;;;;;;5031470;28;20531;-56
2023/09/16 03:06:53;;;;;;;3.50;1.87;;;;;;;;;;5030013;28;20443;-56
2023/09/16 03:09:20;;;;;;;3.10;1.87;;;;;;;;;;5030774;28;20746;-57
2023/09/16 03:11:48;;;;;;;4.23;2.17;;;;;;;;;;5030587;28;20478;-57
2023/09/16 03:14:15;;;;;;;2.73;1.93;;;;;;;;;;5030445;28;20548;-58
2023/09/16 03:16:45;;;;;;;2.87;1.97;;;;;;;;;;5030167;28;20442;-56
2023/09/16 03:19:13;;;;;;;4.10;2.17;;;;;;;;;;5030240;28;20446;-56
2023/09/16 03:21:41;;;;;;;3.20;2.10;;;;;;;;;;5030200;28;20832;-56
2023/09/16 03:24:09;;;;;;;3.07;2.10;;;;;;;;;;5030356;28;20494;-58
2023/09/16 03:26:37;;;;;;;2.90;1.60;;;;;;;;;;5030253;28;20501;-56
2023/09/16 03:29:04;;;;;;;2.83;2.40;;;;;;;;;;5030422;28;20540;-56
2023/09/16 03:31:31;;;;;;;2.67;2.10;;;;;;;;;;5030059;28;20891;-57
2023/09/16 03:33:59;;;;;;;3.07;1.60;;;;;;;;;;5029950;28;21027;-56
2023/09/16 03:36:26;;;;;;;2.80;1.67;;;;;;;;;;5030305;28;20478;-59
2023/09/16 03:38:53;;;;;;;2.97;2.10;;;;;;;;;;5029902;28;20811;-56
2023/09/16 03:41:22;;;;;;;3.20;2.23;;;;;;;;;;5030125;28;20509;-57
2023/09/16 03:43:49;;;;;;;2.80;1.97;;;;;;;;;;5058496;22;20488;-57
2023/09/16 03:46:17;;;;;;;2.70;1.90;;;;;;;;;;5049347;28;20468;-55
2023/09/16 03:48:44;;;;;;;4.10;2.30;;;;;;;;;;5049369;28;20530;-56
2023/09/16 03:51:11;;;;;;;3.30;1.60;;;;;;;;;;5050214;28;20939;-57
2023/09/16 03:53:39;;;;;;;3.03;1.77;;;;;;;;;;5053997;28;20586;-56
2023/09/16 03:56:08;;;;;;;2.80;1.90;;;;;;;;;;5053957;28;20483;-55
2023/09/16 03:58:37;;;;;;;7.47;2.27;;;;;;;;;;5053760;28;20453;-56
2023/09/16 04:01:04;;;;;;;3.20;2.03;;;;;;;;;;5053219;28;20488;-55
2023/09/16 04:03:31;;;;;;;3.60;1.90;;;;;;;;;;5054096;28;20507;-55
2023/09/16 04:05:59;;;;;;;2.43;1.97;;;;;;;;;;5053754;28;20465;-57
2023/09/16 04:08:27;;;;;;;2.90;2.20;;;;;;;;;;5053524;28;20444;-55
2023/09/16 04:10:54;;;;;;;3.00;2.00;;;;;;;;;;5053548;28;20449;-56
2023/09/16 04:13:22;;;;;;;3.87;2.03;;;;;;;;;;5054094;28;20488;-57
2023/09/16 04:15:51;;;;;;;4.20;2.07;;;;;;;;;;5053545;28;20445;-57
2023/09/16 04:18:19;;;;;;;3.50;2.00;;;;;;;;;;5053226;28;20480;-56
2023/09/16 04:20:47;;;;;;;2.70;2.00;;;;;;;;;;5053347;28;20441;-57
2023/09/16 04:23:14;;;;;;;2.20;1.57;;;;;;;;;;5053690;28;20469;-57
2023/09/16 04:25:42;;;;;;;5.17;2.00;;;;;;;;;;5053383;28;20437;-57
2023/09/16 04:28:09;;;;;;;2.30;1.60;;;;;;;;;;5053153;28;20464;-57
2023/09/16 04:30:39;;;;;;;2.60;1.83;;;;;;;;;;5053624;28;20495;-55
2023/09/16 04:33:10;;;;;;;5.27;2.20;;;;;;;;;;5052928;28;20576;-55
2023/09/16 04:35:43;;;;;;;3.23;1.77;;;;;;;;;;5053141;28;20452;-56
2023/09/16 04:38:11;;;;;;;2.53;1.60;;;;;;;;;;5053012;28;20676;-57
2023/09/16 04:40:38;;;;;;;2.90;1.90;;;;;;;;;;5052903;28;20472;-55
2023/09/16 04:43:06;;;;;;;3.07;1.40;;;;;;;;;;5053084;28;20560;-55
2023/09/16 04:45:33;;;;;;;4.27;2.10;;;;;;;;;;5053253;28;20548;-57
2023/09/16 04:48:00;;;;;;;4.57;2.70;;;;;;;;;;5052757;28;20441;-55
2023/09/16 04:50:29;;;;;;;6.93;2.00;;;;;;;;;;5053082;28;20524;-57
2023/09/16 04:52:58;;;;;;;3.80;1.70;;;;;;;;;;5052483;28;20528;-56
2023/09/16 04:55:25;;;;;;;3.00;1.97;;;;;;;;;;5052868;28;20508;-57
2023/09/16 04:57:53;;;;;;;3.17;2.00;;;;;;;;;;5052254;28;20769;-56
2023/09/16 05:00:21;;;;;;;4.07;1.80;;;;;;;;;;5052892;28;20960;-57
2023/09/16 05:02:50;;;;;;;3.27;2.03;;;;;;;;;;5052448;28;21018;-56
2023/09/16 05:05:17;;;;;;;3.23;1.80;;;;;;;;;;5051087;28;20477;-57
2023/09/16 05:07:46;;;;;;;3.23;1.83;;;;;;;;;;5051434;28;20469;-58
2023/09/16 05:10:14;;;;;;;2.60;2.10;;;;;;;;;;5052165;28;21066;-57
2023/09/16 05:12:42;;;;;;;6.70;2.47;;;;;;;;;;5052180;28;20544;-59
2023/09/16 05:15:11;;;;;;;3.63;2.30;;;;;;;;;;5052020;28;20440;-58
2023/09/16 05:17:38;;;;;;;3.20;2.10;;;;;;;;;;5049012;28;20461;-57
2023/09/16 05:20:06;;;;;;;3.63;2.30;;;;;;;;;;5051080;28;20532;-58
2023/09/16 05:22:33;;;;;;;3.17;2.10;;;;;;;;;;5051916;28;20538;-58
2023/09/16 05:25:02;;;;;;;4.83;1.53;;;;;;;;;;5051401;28;20931;-58
2023/09/16 05:27:29;;;;;;;3.10;2.43;;;;;;;;;;5051518;28;20437;-59
2023/09/16 05:29:56;;;;;;;3.90;2.20;;;;;;;;;;5051769;28;20473;-59
2023/09/16 05:32:24;;;;;;;3.77;1.93;;;;;;;;;;5051799;28;20484;-58
2023/09/16 05:34:51;;;;;;;2.70;2.10;;;;;;;;;;5051572;28;20919;-58
2023/09/16 05:37:18;;;;;;;2.80;2.03;;;;;;;;;;5048627;28;20477;-59
2023/09/16 05:39:45;;;;;;;3.70;2.20;;;;;;;;;;5051312;28;20917;-58
2023/09/16 05:42:14;;;;;;;3.83;2.20;;;;;;;;;;5051290;28;20441;-58
2023/09/16 05:44:41;;;;;;;4.33;1.80;;;;;;;;;;5049423;28;20713;-57
2023/09/16 05:47:09;;;;;;;3.63;2.00;;;;;;;;;;5051265;28;20935;-57
2023/09/16 05:49:36;;;;;;;3.37;2.50;;;;;;;;;;5051139;28;20916;-58
2023/09/16 05:52:03;;;;;;;4.47;1.90;;;;;;;;;;5050955;28;20451;-59
2023/09/16 05:54:31;;;;;;;2.30;1.40;;;;;;;;;;5051455;28;20504;-57
2023/09/16 05:56:58;;;;;;;2.90;2.10;;;;;;;;;;5051048;28;20484;-57
2023/09/16 05:59:27;;;;;;;2.70;1.83;;;;;;;;;;5051084;28;20970;-59
2023/09/16 06:01:55;;;;;;;2.57;1.63;;;;;;;;;;5050961;28;20441;-59
2023/09/16 06:04:22;;;;;;;2.93;2.10;;;;;;;;;;5051014;28;20472;-58
2023/09/16 06:06:50;;;;;;;3.70;2.03;;;;;;;;;;5051131;28;20433;-60
2023/09/16 06:09:17;;;;;;;3.80;1.83;;;;;;;;;;5051030;28;20516;-59
2023/09/16 06:11:44;;;;;;;2.90;1.80;;;;;;;;;;5050057;28;20473;-59
2023/09/16 06:14:11;;;;;;;3.20;2.07;;;;;;;;;;5050005;28;20509;-57
2023/09/16 06:16:40;;;;;;;2.93;1.60;;;;;;;;;;5050550;28;20514;-57
2023/09/16 06:19:07;;;;;;;3.63;1.97;;;;;;;;;;5050546;28;20477;-57
2023/09/16 06:21:35;;;;;;;3.70;1.60;;;;;;;;;;5050969;28;20550;-57
2023/09/16 06:24:02;;;;;;;2.77;1.60;;;;;;;;;;5049767;28;20658;-57
2023/09/16 06:26:29;;;;;;;3.70;2.20;;;;;;;;;;5050177;28;20465;-58
2023/09/16 06:28:57;;;;;;;3.10;2.33;;;;;;;;;;5050290;28;20461;-59
2023/09/16 06:31:24;;;;;;;3.13;2.10;;;;;;;;;;5051202;28;20438;-59
2023/09/16 06:33:55;;;;;;;5.27;2.37;;;;;;;;;;5050150;28;20469;-59
2023/09/16 06:36:22;;;;;;;3.63;2.37;;;;;;;;;;5048300;28;20484;-59
2023/09/16 06:38:49;;;;;;;2.63;1.90;;;;;;;;;;5050286;28;20469;-59
2023/09/16 06:41:16;;;;;;;4.17;2.63;;;;;;;;;;5050012;28;20534;-60
2023/09/16 06:43:44;;;;;;;3.30;2.23;;;;;;;;;;5050433;28;20558;-59
2023/09/16 06:46:11;;;;;;;3.13;2.40;;;;;;;;;;5050500;28;20473;-57
2023/09/16 06:48:38;;;;;;;3.23;2.30;;;;;;;;;;5050359;28;20503;-57
2023/09/16 06:51:07;;;;;;;7.30;3.03;;;;;;;;;;5050445;28;20874;-57
2023/09/16 06:53:34;;;;;;;3.20;2.60;;;;;;;;;;5050520;28;20517;-58
2023/09/16 06:56:01;;;;;;;4.13;3.63;;;;;;;;;;5048860;28;20457;-58
2023/09/16 06:58:29;;;;;;;4.60;2.80;;;;;;;;;;5050093;28;21014;-58
2023/09/16 07:00:56;;;;;;;7.47;3.73;;;;;;;;;;5049712;28;20484;-58
2023/09/16 07:03:23;;;;;;;5.43;3.03;;;;;;;;;;5049932;28;20501;-59
2023/09/16 07:05:51;;;;;;;3.40;2.77;;;;;;;;;;5049214;28;20968;-59
2023/09/16 07:08:19;;;;;;;6.30;2.67;;;;;;;;;;5043508;28;20461;-59
2023/09/16 07:10:47;;;;;;;3.43;2.37;;;;;;;;;;5046516;28;20819;-59
2023/09/16 07:13:14;;;;;;;4.70;2.83;;;;;;;;;;5046325;28;20473;-59
2023/09/16 07:15:41;;;;;;;3.50;2.57;;;;;;;;;;5047222;28;20473;-59
2023/09/16 07:18:09;;;;;;;2.67;1.93;;;;;;;;;;5046474;28;20515;-58
2023/09/16 07:20:36;;;;;;;5.30;2.27;;;;;;;;;;5044310;28;20480;-59
2023/09/16 07:23:04;;;;;;;3.27;2.20;;;;;;;;;;5044965;28;20986;-59
2023/09/16 07:25:32;;;;;;;2.80;2.27;;;;;;;;;;5045690;28;20518;-59
2023/09/16 07:28:01;;;;;;;3.57;2.17;;;;;;;;;;5045775;28;20944;-58
2023/09/16 07:30:28;;;;;;;3.00;2.10;;;;;;;;;;5046593;28;20519;-58
2023/09/16 07:32:55;;;;;;;3.00;2.40;;;;;;;;;;5045968;28;20465;-58
2023/09/16 07:35:23;;;;;;;4.70;2.47;;;;;;;;;;5046261;28;20582;-57
2023/09/16 07:37:50;;;;;;;4.00;2.70;;;;;;;;;;5045523;28;20469;-58
2023/09/16 07:40:17;;;;;;;3.50;2.70;;;;;;;;;;5045781;28;20477;-59
2023/09/16 07:42:46;;;;;;;3.07;2.40;;;;;;;;;;5045514;28;21031;-59
2023/09/16 07:45:13;;;;;;;4.00;2.53;;;;;;;;;;5045279;28;20891;-59
2023/09/16 07:47:41;;;;;;;4.93;3.40;;;;;;;;;;5045498;28;20484;-58
2023/09/16 07:50:08;;;;;;;4.20;3.40;;;;;;;;;;5046073;28;20862;-58
2023/09/16 07:52:36;;;;;;;4.10;3.27;;;;;;;;;;5044377;28;20465;-57
2023/09/16 07:55:05;;;;;;;4.17;3.67;;;;;;;;;;5043944;28;20480;-57
2023/09/16 07:57:32;;;;;;;4.30;3.10;;;;;;;;;;5045426;28;20927;-58
2023/09/16 08:00:00;;;;;;;4.30;3.30;;;;;;;;;;5045734;28;20959;-58
2023/09/16 08:02:28;;;;;;;3.67;3.27;;;;;;;;;;5044944;28;20880;-59
2023/09/16 08:04:55;;;;;;;3.60;3.10;;;;;;;;;;5043763;28;20473;-59
2023/09/16 08:07:22;;;;;;;3.93;3.00;;;;;;;;;;5044615;28;20534;-59
2023/09/16 08:09:50;;;;;;;4.10;2.60;;;;;;;;;;5044336;28;21002;-59
2023/09/16 08:12:19;;;;;;;3.57;2.80;;;;;;;;;;5045048;28;20485;-59
2023/09/16 08:14:47;;;;;;;3.27;2.60;;;;;;;;;;5043020;28;20580;-59
2023/09/16 08:17:15;;;;;;;4.60;2.73;;;;;;;;;;5044417;28;20499;-58
2023/09/16 08:19:43;;;;;;;5.07;3.20;;;;;;;;;;5044474;28;21179;-59
2023/09/16 08:22:10;;;;;;;4.67;3.00;;;;;;;;;;5044925;28;20475;-58
2023/09/16 08:24:37;;;;;;;4.97;3.30;;;;;;;;;;5044757;28;20437;-58
2023/09/16 08:27:04;;;;;;;3.63;2.90;;;;;;;;;;5043906;28;20477;-59
2023/09/16 08:29:32;;;;;;;4.17;3.00;;;;;;;;;;5044640;28;20481;-59
2023/09/16 08:31:59;;;;;;;3.13;2.77;;;;;;;;;;5045354;28;20465;-59
2023/09/16 08:34:27;;;;;;;3.03;2.27;;;;;;;;;;5044476;28;20611;-58
2023/09/16 08:36:55;;;;;;;3.10;2.53;;;;;;;;;;5045393;28;20477;-59
2023/09/16 08:39:22;;;;;;;3.67;3.00;;;;;;;;;;5050060;28;20473;-57
2023/09/16 08:41:52;;;;;;;3.67;3.10;;;;;;;;;;5049813;28;20507;-57
2023/09/16 08:44:20;;;;;;;3.70;2.63;;;;;;;;;;5049516;28;20501;-56
2023/09/16 08:46:48;;;;;;;5.73;3.00;;;;;;;;;;5050387;28;21488;-57
2023/09/16 08:49:16;;;;;;;4.23;2.70;;;;;;;;;;5049600;28;20810;-56
2023/09/16 08:51:48;;;;;;;3.80;2.77;;;;;;;;;;5049569;28;20449;-55
2023/09/16 08:54:16;;;;;;;2.77;2.47;;;;;;;;;;5049285;28;20583;-57
2023/09/16 08:56:44;;;;;;;3.70;2.80;;;;;;;;;;5046418;28;20465;-57
2023/09/16 08:59:12;;;;;;;3.60;2.43;;;;;;;;;;5049121;28;20451;-57
2023/09/16 09:01:40;;;;;;;3.77;2.40;;;;;;;;;;5048576;28;20538;-57
2023/09/16 09:04:07;;;;;;;4.00;2.27;;;;;;;;;;5048169;28;20939;-55
2023/09/16 09:06:35;;;;;;;2.90;2.50;;;;;;;;;;5048530;28;20927;-57
2023/09/16 09:09:04;;;;;;;3.73;2.70;;;;;;;;;;5044023;28;20437;-56
2023/09/16 09:11:32;;;;;;;4.13;2.40;;;;;;;;;;5047434;28;20488;-56
2023/09/16 09:14:00;;;;;;;2.90;1.97;;;;;;;;;;5047960;28;20453;-56
2023/09/16 09:16:28;;;;;;;4.87;3.27;;;;;;;;;;5047175;28;20433;-57
2023/09/16 09:18:57;;;;;;;3.10;2.43;;;;;;;;;;5046454;28;20820;-57
2023/09/16 09:21:24;;;;;;;3.30;2.50;;;;;;;;;;5048456;28;20473;-57
2023/09/16 09:23:51;;;;;;;3.67;2.50;;;;;;;;;;5047114;28;20497;-57
2023/09/16 09:26:20;;;;;;;3.60;2.83;;;;;;;;;;5047169;28;20550;-55
2023/09/16 09:28:47;;;;;;;3.80;2.57;;;;;;;;;;5046523;28;20507;-57
2023/09/16 09:31:15;;;;;;;3.90;2.43;;;;;;;;;;5046784;28;20473;-57
2023/09/16 09:33:42;;;;;;;3.23;2.20;;;;;;;;;;5047325;28;20831;-57
2023/09/16 09:36:11;;;;;;;3.80;2.40;;;;;;;;;;5047175;28;20501;-57
2023/09/16 09:38:39;;;;;;;3.40;2.40;;;;;;;;;;5044912;28;20854;-57
2023/09/16 09:41:07;;;;;;;3.30;2.07;;;;;;;;;;5047918;28;20495;-58
2023/09/16 09:43:35;;;;;;;4.60;3.50;;;;;;;;;;5100162;22;20583;-59
2023/09/16 09:46:03;;;;;;;3.03;2.60;;;;;;;;;;5027153;28;20454;-59
2023/09/16 09:48:31;;;;;;;2.87;2.30;;;;;;;;;;5026551;28;20446;-58
2023/09/16 09:50:58;;;;;;;3.07;2.33;;;;;;;;;;5025150;28;20469;-59
2023/09/16 09:53:26;;;;;;;3.00;2.17;;;;;;;;;;5026128;28;20494;-59
2023/09/16 09:55:54;;;;;;;3.03;2.17;;;;;;;;;;5026503;28;20492;-59
2023/09/16 09:58:21;;;;;;;3.20;2.20;;;;;;;;;;5026743;28;20530;-59
2023/09/16 10:00:50;;;;;;;2.70;1.77;;;;;;;;;;5025849;28;20897;-58
2023/09/16 10:03:18;;;;;;;2.97;2.27;;;;;;;;;;5024895;28;20551;-59
2023/09/16 10:05:46;;;;;;;2.57;1.80;;;;;;;;;;5025395;28;20447;-59
2023/09/16 10:08:13;;;;;;;2.90;2.30;;;;;;;;;;5025627;28;20453;-58
2023/09/16 10:10:41;;;;;;;2.80;1.90;;;;;;;;;;5028605;28;20792;-58
2023/09/16 10:13:09;;;;;;;3.33;1.90;;;;;;;;;;5028380;28;20497;-58
2023/09/16 10:15:37;;;;;;;2.90;2.37;;;;;;;;;;5027734;28;20514;-59
2023/09/16 10:18:06;;;;;;;3.00;2.27;;;;;;;;;;5028715;28;20516;-59
2023/09/16 10:20:35;;;;;;;3.30;1.80;;;;;;;;;;5030932;28;20489;-58
2023/09/16 10:23:02;;;;;;;3.40;2.00;;;;;;;;;;5030296;28;20498;-59
2023/09/16 10:25:30;;;;;;;3.33;2.57;;;;;;;;;;5030135;28;20759;-58
2023/09/16 10:27:58;;;;;;;9.60;2.60;;;;;;;;;;5030083;28;20478;-58
2023/09/16 10:30:26;;;;;;;3.10;2.30;;;;;;;;;;5030723;28;20545;-58
2023/09/16 10:32:54;;;;;;;3.33;2.10;;;;;;;;;;5030435;28;20519;-58
2023/09/16 10:35:22;;;;;;;4.70;2.40;;;;;;;;;;5030884;28;20485;-59
2023/09/16 10:37:53;;;;;;;3.73;2.73;;;;;;;;;;5030891;28;20496;-59
2023/09/16 10:40:20;;;;;;;2.90;2.13;;;;;;;;;;5031396;28;20720;-58
2023/09/16 10:42:48;;;;;;;3.03;2.27;;;;;;;;;;5031046;28;20446;-59
2023/09/16 10:45:17;;;;;;;3.30;2.47;;;;;;;;;;5031517;28;20948;-59
2023/09/16 10:47:46;;;;;;;3.53;2.63;;;;;;;;;;5031171;28;20781;-59
2023/09/16 10:50:13;;;;;;;2.97;2.47;;;;;;;;;;5031240;28;20874;-58
2023/09/16 10:52:43;;;;;;;2.90;2.20;;;;;;;;;;5031081;28;20526;-59
2023/09/16 10:55:14;;;;;;;3.53;2.60;;;;;;;;;;5031071;28;20579;-58
2023/09/16 10:57:48;;;;;;;3.40;2.20;;;;;;;;;;5030726;28;20446;-59
2023/09/16 11:00:18;;;;;;;3.20;2.10;;;;;;;;;;5030870;28;20469;-58
2023/09/16 11:02:51;;;;;;;3.93;3.20;;;;;;;;;;5030878;28;20504;-58
2023/09/16 11:05:19;;;;;;;10.60;8.20;;;;;;;;;;5031240;28;20442;-59
2023/09/16 11:07:47;;;;;;;7.80;6.20;;;;;;;;;;5030283;28;20438;-59
2023/09/16 11:10:15;;;;;;;5.97;3.83;;;;;;;;;;5030716;28;20975;-58
2023/09/16 11:12:42;;;;;;;3.70;2.80;;;;;;;;;;5031099;28;20511;-59
2023/09/16 11:15:10;;;;;;;5.87;4.67;;;;;;;;;;5030816;28;20513;-57
2023/09/16 11:17:38;;;;;;;4.90;3.90;;;;;;;;;;5030556;28;20446;-58
2023/09/16 11:20:12;;;;;;;4.07;3.40;;;;;;;;;;5030779;28;20474;-58
2023/09/16 11:22:47;;;;;;;3.20;2.40;;;;;;;;;;5030490;28;20458;-58
2023/09/16 11:25:16;;;;;;;3.97;2.93;;;;;;;;;;5030748;28;20513;-57
2023/09/16 11:27:43;;;;;;;3.30;2.23;;;;;;;;;;5030334;28;20517;-59
2023/09/16 11:30:14;;;;;;;2.83;2.30;;;;;;;;;;5030580;28;20470;-59
2023/09/16 11:32:42;;;;;;;3.17;2.10;;;;;;;;;;5030454;28;20473;-59
2023/09/16 11:35:10;;;;;;;4.90;2.50;;;;;;;;;;5030483;28;20504;-59
2023/09/16 11:37:37;;;;;;;2.87;2.27;;;;;;;;;;5030347;28;20450;-59
2023/09/16 11:40:10;;;;;;;3.10;2.27;;;;;;;;;;5030314;28;20470;-59
2023/09/16 11:42:39;;;;;;;3.30;2.50;;;;;;;;;;5030406;28;20472;-58
2023/09/16 11:45:07;;;;;;;3.00;1.97;;;;;;;;;;5030292;28;20438;-58
2023/09/16 11:47:35;;;;;;;3.50;2.30;;;;;;;;;;5029758;28;20474;-59
2023/09/16 11:50:02;;;;;;;3.40;1.83;;;;;;;;;;5029362;28;20442;-59
2023/09/16 11:52:30;;;;;;;2.90;1.90;;;;;;;;;;5030432;28;20500;-57
2023/09/16 11:54:58;;;;;;;2.60;1.70;;;;;;;;;;5029994;28;20563;-59
2023/09/16 11:57:25;;;;;;;3.40;1.83;;;;;;;;;;5029780;28;20477;-59
2023/09/16 11:59:55;;;;;;;2.50;1.83;;;;;;;;;;5029932;28;20478;-59
2023/09/16 12:02:22;;;;;;;2.83;1.23;;;;;;;;;;5030105;28;20489;-58
2023/09/16 12:04:49;;;;;;;3.20;1.27;;;;;;;;;;5030191;28;20494;-57
2023/09/16 12:07:17;;;;;;;2.23;1.40;;;;;;;;;;5029858;28;20529;-57
2023/09/16 12:09:46;;;;;;;2.60;1.63;;;;;;;;;;5030021;28;20442;-58
2023/09/16 12:12:13;;;;;;;2.27;1.50;;;;;;;;;;5030683;28;20446;-58
2023/09/16 12:14:42;;;;;;;3.13;1.70;;;;;;;;;;5033757;28;20579;-56
2023/09/16 12:17:11;;;;;;;2.10;1.50;;;;;;;;;;5033673;28;20442;-57
2023/09/16 12:19:37;;;;;;;2.40;1.47;;;;;;;;;;5033848;28;20472;-59
2023/09/16 12:22:04;;;;;;;3.43;1.50;;;;;;;;;;5033944;28;20446;-59
2023/09/16 12:24:32;;;;;;;2.80;1.60;;;;;;;;;;5033692;28;20490;-58
2023/09/16 12:26:59;;;;;;;2.60;1.70;;;;;;;;;;5033314;28;20469;-59
2023/09/16 12:29:28;;;;;;;2.20;1.50;;;;;;;;;;5034253;28;20611;-59
2023/09/16 12:32:08;;;;;;;2.40;1.60;;;;;;;;;;5033804;28;20442;-58
2023/09/16 12:34:37;;;;;;;2.70;2.00;;;;;;;;;;5033793;28;20465;-58
2023/09/16 12:37:05;;;;;;;2.57;1.40;;;;;;;;;;5033292;28;20522;-58
2023/09/16 12:39:33;;;;;;;2.60;1.90;;;;;;;;;;5033619;28;20469;-58
2023/09/16 12:42:01;;;;;;;2.53;1.83;;;;;;;;;;5033659;28;20454;-58
2023/09/16 12:44:29;;;;;;;2.67;1.40;;;;;;;;;;5033333;28;20545;-59
2023/09/16 12:46:57;;;;;;;2.30;1.63;;;;;;;;;;5033190;28;20478;-58
2023/09/16 12:49:25;;;;;;;3.30;1.70;;;;;;;;;;5033575;28;20504;-58
2023/09/16 12:51:54;;;;;;;2.33;1.47;;;;;;;;;;5033343;28;20442;-59
2023/09/16 12:54:21;;;;;;;2.27;1.60;;;;;;;;;;5033325;28;20571;-59
2023/09/16 12:56:49;;;;;;;3.00;1.43;;;;;;;;;;5033294;28;20513;-57
2023/09/16 12:59:16;;;;;;;2.10;1.37;;;;;;;;;;5031390;28;20528;-58
2023/09/16 13:01:44;;;;;;;2.60;1.80;;;;;;;;;;5031305;28;21022;-58
2023/09/16 13:04:12;;;;;;;2.90;1.80;;;;;;;;;;5032280;28;20465;-59
2023/09/16 13:06:39;;;;;;;3.77;1.77;;;;;;;;;;5031794;28;20958;-60
2023/09/16 13:09:11;;;;;;;3.67;2.53;;;;;;;;;;5031830;28;20481;-59
2023/09/16 13:11:39;;;;;;;2.60;1.80;;;;;;;;;;5032634;28;20454;-58
2023/09/16 13:14:06;;;;;;;2.27;1.53;;;;;;;;;;5031191;28;21009;-58
2023/09/16 13:16:37;;;;;;;2.70;1.90;;;;;;;;;;5032233;28;20520;-58
2023/09/16 13:19:11;;;;;;;2.33;1.50;;;;;;;;;;5031031;28;20936;-57
2023/09/16 13:21:38;;;;;;;2.70;1.60;;;;;;;;;;5031027;28;20470;-59
2023/09/16 13:24:05;;;;;;;2.33;1.60;;;;;;;;;;5030844;28;20490;-59
2023/09/16 13:26:34;;;;;;;2.67;1.90;;;;;;;;;;5029679;28;20577;-59
2023/09/16 13:29:03;;;;;;;2.30;1.40;;;;;;;;;;5027268;28;20863;-58
2023/09/16 13:31:31;;;;;;;2.90;1.90;;;;;;;;;;5030237;28;20466;-59
2023/09/16 13:34:00;;;;;;;2.90;1.70;;;;;;;;;;5030312;28;20462;-59
2023/09/16 13:36:28;;;;;;;2.50;2.00;;;;;;;;;;5030408;28;20532;-58
2023/09/16 13:38:56;;;;;;;2.40;1.60;;;;;;;;;;5030765;28;20933;-59
2023/09/16 13:41:24;;;;;;;2.90;1.73;;;;;;;;;;5031049;28;20478;-59
2023/09/16 13:43:53;;;;;;;2.67;1.70;;;;;;;;;;5029924;28;20524;-57
2023/09/16 13:46:21;;;;;;;3.37;2.10;;;;;;;;;;5030107;28;20461;-57
2023/09/16 13:48:50;;;;;;;2.70;1.80;;;;;;;;;;5030310;28;20513;-57
2023/09/16 13:51:17;;;;;;;2.17;1.47;;;;;;;;;;5030285;28;20441;-58
2023/09/16 13:53:44;;;;;;;3.60;1.90;;;;;;;;;;5030063;28;20894;-57
2023/09/16 13:56:13;;;;;;;2.70;1.60;;;;;;;;;;5022503;28;21073;-58
2023/09/16 13:58:40;;;;;;;2.40;1.97;;;;;;;;;;5019934;28;20461;-57
2023/09/16 14:01:09;;;;;;;2.60;2.00;;;;;;;;;;5030127;28;20438;-59
2023/09/16 14:03:36;;;;;;;3.20;1.60;;;;;;;;;;5027821;28;21013;-57
2023/09/16 14:06:03;;;;;;;2.77;1.70;;;;;;;;;;5034822;28;20438;-58
2023/09/16 14:08:30;;;;;;;3.17;2.07;;;;;;;;;;5034653;28;20469;-57
2023/09/16 14:10:57;;;;;;;2.90;2.10;;;;;;;;;;5031575;28;20469;-57
2023/09/16 14:13:25;;;;;;;2.20;1.50;;;;;;;;;;5029691;28;20845;-57
2023/09/16 14:15:52;;;;;;;2.40;1.77;;;;;;;;;;5030581;28;20524;-57
2023/09/16 14:18:21;;;;;;;2.30;1.67;;;;;;;;;;5024322;28;20474;-58
2023/09/16 14:20:50;;;;;;;3.40;2.10;;;;;;;;;;5023398;28;20437;-59
2023/09/16 14:23:18;;;;;;;2.60;1.63;;;;;;;;;;5024891;28;20477;-58
2023/09/16 14:25:45;;;;;;;2.60;1.37;;;;;;;;;;5030176;28;20434;-58
2023/09/16 14:28:12;;;;;;;3.03;2.17;;;;;;;;;;5023612;28;20482;-59
2023/09/16 14:30:40;;;;;;;3.00;1.67;;;;;;;;;;5025980;28;20481;-58
2023/09/16 14:33:07;;;;;;;3.87;2.17;;;;;;;;;;5029011;28;20477;-59
2023/09/16 14:35:36;;;;;;;3.80;2.00;;;;;;;;;;5024811;28;20458;-58
2023/09/16 14:38:04;;;;;;;2.60;1.70;;;;;;;;;;5028430;28;20462;-59
2023/09/16 14:40:31;;;;;;;2.37;1.70;;;;;;;;;;5028603;28;20443;-59
2023/09/16 14:42:59;;;;;;;2.43;1.77;;;;;;;;;;5027237;28;21014;-57
2023/09/16 14:45:26;;;;;;;2.67;1.67;;;;;;;;;;5027969;28;20465;-58
2023/09/16 14:47:54;;;;;;;2.60;1.50;;;;;;;;;;5022119;28;21082;-59